Albion, RI

4:11 PM EDT on July 01, 2015 (GMT -0400)
Manvillain | | Change Station
CLOSE
Current Station
Personal Weather Station
Location: Lincoln, RI
Elevation: 184 ft
Nearby Weather Stations

Elev 184 ft 41.97 °N, 71.47 °W | Updated 8 minutes ago

Scattered Clouds
Scattered Clouds
82.6 °F
Feels Like 86 °F
N
3.2
Wind Variable Wind from West

Today
High -- | Low -- °F
--% Chance of Precip.
Yesterday
High -- | Low -- °F
Precip. -- in
5:14 AM 8:25 PM
Full, 100% visible
Pressure 29.73 in
Visibility 10.0 miles
Clouds Few 3500 ft
Scattered Clouds 4300 ft
Heat Index 86 °F
Dew Point 68 °F
Humidity 62%
Rainfall 0.41 in
Snow Depth Not available.
UV 6 out of 12
Pollen 1.30 out of 12
Air Quality Not available.
Flu Activity Not available.
METAR KSFZ 011955Z AUTO 22006KT 150V270 10SM FEW035 SCT043 26/17 A2973 RMK AO1

More Conditions Fewer Conditions

Pressure 29.73 in
Visibility 10.0 miles
Clouds Few 3500 ft
Scattered Clouds 4300 ft
Heat Index 86 °F
Dew Point 68 °F
Humidity 62%
Rainfall 0.41 in
Snow Depth Not available.
UV 6 out of 12
Pollen 1.30 out of 12
Air Quality Not available.
Flu Activity Not available.
METAR KSFZ 011955Z AUTO 22006KT 150V270 10SM FEW035 SCT043 26/17 A2973 RMK AO1

More Conditions Fewer Conditions

10-Day Weather Forecast

×

Almanac

Astronomy

Jul. 01, 2015 Rise Set
Actual Time
Civil Twilight
Nautical Twilight
Astronomical Twilight
Moon
Length of Visible Light
Length of Day
Tomorrow will be .
, % of the Moon is Illuminated

Today's Extremes

State Highs State Lows

Community

WunderPhotos

Upload Photos

1,834,274 photos uploaded!

WunderBlogs® & News

Nearby

Air Quality

  Air Quality AQ Index Pollutant
Not available.

Snow Depth

Station Depth Elevation

Earthquake Activity

City Distance Mag. Time & Date
Minimum magnitude displayed is 2.5.

Coastal Water Temperatures

Place Temperature

Stations

Nearby Weather Stations

Station Location Temp. Windchill Dew Point Humidity Wind Precip. Elev Updated Type